UAL1039 KEWR-KIND
Flight info
| Callsign | UAL1039 |
|---|---|
| Flight time | 1h 51m |
| Altitude | 30000 |
| Route | ZIMMZ Q42 HIDON RINTE SNKPT2 |
| Aircraft | A320/M-SDE3FGHIRWY/LB1 |
Departure
| Time | 2026-05-05 23:33 |
|---|---|
| Airport | Newark Liberty International Airport (KEWR) |
Arrival
| Time | 2026-05-06 01:25 |
|---|---|
| Airport | Indianapolis International Airport (KIND) |
| Time | Latitude | Longitude | Altitude | Speed | Heading |
|---|---|---|---|---|---|
| 2026-05-05 23:13 | 40.69687 | -74.17513 | 24 ft | 0 kts | 307° |
| 2026-05-05 23:23 | 40.69682 | -74.17504 | 22 ft | 2 kts | 304° |
| 2026-05-05 23:23 | 40.69672 | -74.17486 | 21 ft | 2 kts | 306° |
| 2026-05-05 23:23 | 40.69662 | -74.17469 | 20 ft | 2 kts | 304° |
| 2026-05-05 23:23 | 40.69650 | -74.17455 | 20 ft | 2 kts | 35° |
| 2026-05-05 23:24 | 40.69639 | -74.17466 | 20 ft | 1 kts | 40° |
| 2026-05-05 23:24 | 40.69637 | -74.17468 | 20 ft | 0 kts | 40° |
| 2026-05-05 23:26 | 40.69643 | -74.17461 | 20 ft | 2 kts | 40° |
| 2026-05-05 23:27 | 40.69662 | -74.17441 | 20 ft | 4 kts | 40° |
| 2026-05-05 23:27 | 40.69689 | -74.17410 | 21 ft | 6 kts | 40° |
| 2026-05-05 23:27 | 40.69724 | -74.17370 | 23 ft | 8 kts | 40° |
| 2026-05-05 23:27 | 40.69773 | -74.17321 | 22 ft | 10 kts | 37° |
| 2026-05-05 23:28 | 40.69766 | -74.17238 | 21 ft | 12 kts | 138° |
| 2026-05-05 23:28 | 40.69691 | -74.17165 | 21 ft | 14 kts | 148° |
| 2026-05-05 23:28 | 40.69606 | -74.17087 | 21 ft | 14 kts | 114° |
| 2026-05-05 23:28 | 40.69625 | -74.16985 | 19 ft | 7 kts | 66° |
| 2026-05-05 23:29 | 40.69636 | -74.16942 | 19 ft | 6 kts | 72° |
| 2026-05-05 23:29 | 40.69656 | -74.16879 | 19 ft | 8 kts | 47° |
| 2026-05-05 23:29 | 40.69712 | -74.16843 | 19 ft | 10 kts | 26° |
| 2026-05-05 23:29 | 40.69776 | -74.16781 | 18 ft | 13 kts | 59° |
| 2026-05-05 23:30 | 40.69822 | -74.16655 | 17 ft | 14 kts | 52° |
| 2026-05-05 23:30 | 40.69912 | -74.16596 | 16 ft | 15 kts | 24° |
| 2026-05-05 23:30 | 40.70008 | -74.16536 | 15 ft | 10 kts | 26° |
| 2026-05-05 23:30 | 40.70070 | -74.16486 | 16 ft | 10 kts | 47° |
| 2026-05-05 23:31 | 40.70061 | -74.16394 | 15 ft | 12 kts | 111° |
| 2026-05-05 23:31 | 40.69993 | -74.16387 | 14 ft | 4 kts | 207° |
| 2026-05-05 23:31 | 40.69988 | -74.16390 | 14 ft | 0 kts | 206° |
| 2026-05-05 23:32 | 40.69983 | -74.16393 | 14 ft | 3 kts | 206° |
| 2026-05-05 23:32 | 40.69791 | -74.16516 | 17 ft | 62 kts | 205° |
| 2026-05-05 23:33 | 40.69229 | -74.16871 | 21 ft | 114 kts | 206° |
| 2026-05-05 23:33 | 40.68391 | -74.17410 | 124 ft | 146 kts | 208° |
| 2026-05-05 23:33 | 40.67445 | -74.18019 | 572 ft | 159 kts | 207° |
| 2026-05-05 23:33 | 40.66408 | -74.18669 | 1038 ft | 170 kts | 206° |
| 2026-05-05 23:34 | 40.65314 | -74.19377 | 1618 ft | 180 kts | 214° |
| 2026-05-05 23:34 | 40.64447 | -74.20631 | 2081 ft | 197 kts | 242° |
| 2026-05-05 23:34 | 40.64203 | -74.22484 | 2657 ft | 217 kts | 268° |
| 2026-05-05 23:34 | 40.64615 | -74.24478 | 3334 ft | 234 kts | 283° |
| 2026-05-05 23:35 | 40.65184 | -74.26520 | 4096 ft | 240 kts | 281° |
| 2026-05-05 23:35 | 40.65692 | -74.28635 | 4910 ft | 244 kts | 281° |
| 2026-05-05 23:35 | 40.66180 | -74.30789 | 5757 ft | 246 kts | 278° |
| 2026-05-05 23:35 | 40.66510 | -74.32976 | 6600 ft | 247 kts | 276° |
| 2026-05-05 23:36 | 40.66797 | -74.35218 | 7404 ft | 250 kts | 276° |
| 2026-05-05 23:36 | 40.67103 | -74.37495 | 8208 ft | 254 kts | 277° |
| 2026-05-05 23:36 | 40.67447 | -74.39804 | 8975 ft | 259 kts | 278° |
| 2026-05-05 23:36 | 40.67826 | -74.42145 | 9760 ft | 263 kts | 279° |
| 2026-05-05 23:37 | 40.68234 | -74.44542 | 10239 ft | 277 kts | 280° |
| 2026-05-05 23:37 | 40.68685 | -74.47117 | 10449 ft | 297 kts | 281° |
| 2026-05-05 23:37 | 40.69166 | -74.49815 | 11024 ft | 304 kts | 281° |
| 2026-05-05 23:37 | 40.69659 | -74.52541 | 11703 ft | 308 kts | 281° |
| 2026-05-05 23:38 | 40.70159 | -74.55295 | 12412 ft | 310 kts | 281° |
| 2026-05-05 23:38 | 40.70665 | -74.58074 | 13127 ft | 313 kts | 282° |
| 2026-05-05 23:38 | 40.71174 | -74.60871 | 13821 ft | 315 kts | 281° |
| 2026-05-05 23:38 | 40.71684 | -74.63702 | 14424 ft | 319 kts | 281° |
| 2026-05-05 23:39 | 40.72196 | -74.66559 | 15001 ft | 322 kts | 281° |
| 2026-05-05 23:39 | 40.72793 | -74.69887 | 15656 ft | 327 kts | 281° |
| 2026-05-05 23:39 | 40.73743 | -74.75208 | 16698 ft | 333 kts | 280° |
| 2026-05-05 23:40 | 40.74276 | -74.78202 | 17268 ft | 337 kts | 280° |
| 2026-05-05 23:40 | 40.74805 | -74.81185 | 17829 ft | 341 kts | 280° |
| 2026-05-05 23:40 | 40.75347 | -74.84249 | 18365 ft | 345 kts | 280° |
| 2026-05-05 23:40 | 40.75894 | -74.87341 | 18879 ft | 348 kts | 280° |
| 2026-05-05 23:41 | 40.76449 | -74.90462 | 19416 ft | 351 kts | 280° |
| 2026-05-05 23:41 | 40.77007 | -74.93611 | 19954 ft | 354 kts | 280° |
| 2026-05-05 23:41 | 40.77569 | -74.96790 | 20483 ft | 357 kts | 280° |
| 2026-05-05 23:41 | 40.78126 | -74.99949 | 20985 ft | 360 kts | 280° |
| 2026-05-05 23:42 | 40.78696 | -75.03188 | 21483 ft | 364 kts | 280° |
| 2026-05-05 23:42 | 40.79268 | -75.06455 | 21991 ft | 367 kts | 280° |
| 2026-05-05 23:42 | 40.79825 | -75.09752 | 22501 ft | 369 kts | 276° |
| 2026-05-05 23:42 | 40.80027 | -75.13123 | 23004 ft | 369 kts | 266° |
| 2026-05-05 23:43 | 40.79729 | -75.16480 | 23473 ft | 370 kts | 257° |
| 2026-05-05 23:43 | 40.79235 | -75.19823 | 23896 ft | 372 kts | 258° |
| 2026-05-05 23:43 | 40.78737 | -75.23185 | 24322 ft | 375 kts | 258° |
| 2026-05-05 23:43 | 40.78239 | -75.26569 | 24748 ft | 377 kts | 258° |
| 2026-05-05 23:44 | 40.77742 | -75.29970 | 25176 ft | 379 kts | 258° |
| 2026-05-05 23:44 | 40.77251 | -75.33344 | 25582 ft | 380 kts | 258° |
| 2026-05-05 23:44 | 40.76728 | -75.36772 | 25983 ft | 382 kts | 255° |
| 2026-05-05 23:44 | 40.75859 | -75.40084 | 26383 ft | 384 kts | 246° |
| 2026-05-05 23:45 | 40.74688 | -75.43253 | 26797 ft | 385 kts | 244° |
| 2026-05-05 23:45 | 40.73500 | -75.46427 | 27193 ft | 387 kts | 244° |
| 2026-05-05 23:45 | 40.72307 | -75.49616 | 27596 ft | 388 kts | 244° |
| 2026-05-05 23:45 | 40.71111 | -75.52820 | 27969 ft | 390 kts | 244° |
| 2026-05-05 23:46 | 40.69927 | -75.55996 | 28329 ft | 392 kts | 244° |
| 2026-05-05 23:46 | 40.68721 | -75.59228 | 28694 ft | 394 kts | 244° |
| 2026-05-05 23:46 | 40.67506 | -75.62474 | 29061 ft | 396 kts | 244° |
| 2026-05-05 23:46 | 40.66278 | -75.65737 | 29408 ft | 399 kts | 244° |
| 2026-05-05 23:47 | 40.65040 | -75.69025 | 29724 ft | 402 kts | 244° |
| 2026-05-05 23:47 | 40.63799 | -75.72322 | 29842 ft | 398 kts | 244° |
| 2026-05-05 23:47 | 40.62590 | -75.75535 | 29854 ft | 387 kts | 244° |
| 2026-05-05 23:47 | 40.61402 | -75.78687 | 29864 ft | 383 kts | 245° |
| 2026-05-05 23:48 | 40.59059 | -75.84894 | 29844 ft | 380 kts | 245° |
| 2026-05-05 23:48 | 40.56702 | -75.91115 | 29840 ft | 380 kts | 244° |
| 2026-05-05 23:49 | 40.54337 | -75.97318 | 29845 ft | 380 kts | 244° |
| 2026-05-05 23:49 | 40.51970 | -76.03524 | 29846 ft | 379 kts | 244° |
| 2026-05-05 23:50 | 40.49619 | -76.09683 | 29819 ft | 380 kts | 245° |
| 2026-05-05 23:50 | 40.47240 | -76.15879 | 29835 ft | 380 kts | 245° |
| 2026-05-05 23:51 | 40.44859 | -76.22074 | 29850 ft | 380 kts | 245° |
| 2026-05-05 23:51 | 40.42481 | -76.28254 | 29837 ft | 379 kts | 245° |
| 2026-05-05 23:52 | 40.40124 | -76.34382 | 29839 ft | 379 kts | 245° |
| 2026-05-05 23:52 | 40.37747 | -76.40541 | 29836 ft | 378 kts | 245° |
| 2026-05-05 23:53 | 40.35366 | -76.46688 | 29829 ft | 378 kts | 245° |
| 2026-05-05 23:53 | 40.33761 | -76.53183 | 29834 ft | 375 kts | 260° |
| 2026-05-05 23:54 | 40.32773 | -76.59878 | 29833 ft | 374 kts | 259° |
| 2026-05-05 23:54 | 40.31771 | -76.66516 | 29832 ft | 374 kts | 259° |
| 2026-05-05 23:55 | 40.30760 | -76.73200 | 29837 ft | 374 kts | 259° |
| 2026-05-05 23:55 | 40.29752 | -76.79878 | 29846 ft | 374 kts | 259° |
| 2026-05-05 23:56 | 40.28738 | -76.86552 | 29854 ft | 374 kts | 259° |
| 2026-05-05 23:56 | 40.27723 | -76.93174 | 29841 ft | 373 kts | 259° |
| 2026-05-05 23:57 | 40.26701 | -76.99830 | 29836 ft | 373 kts | 259° |
| 2026-05-05 23:57 | 40.25677 | -77.06473 | 29841 ft | 372 kts | 259° |
| 2026-05-05 23:58 | 40.24654 | -77.13116 | 29837 ft | 372 kts | 259° |
| 2026-05-05 23:58 | 40.23634 | -77.19703 | 29834 ft | 372 kts | 259° |
| 2026-05-05 23:59 | 40.22599 | -77.26333 | 29850 ft | 371 kts | 260° |
| 2026-05-05 23:59 | 40.21567 | -77.32943 | 29850 ft | 370 kts | 260° |
| 2026-05-06 00:00 | 40.20535 | -77.39540 | 29820 ft | 370 kts | 259° |
| 2026-05-06 00:00 | 40.19500 | -77.46096 | 29821 ft | 371 kts | 259° |
| 2026-05-06 00:01 | 40.18454 | -77.52707 | 29823 ft | 372 kts | 259° |
| 2026-05-06 00:01 | 40.17402 | -77.59326 | 29845 ft | 372 kts | 259° |
| 2026-05-06 00:02 | 40.16346 | -77.65936 | 29852 ft | 371 kts | 259° |
| 2026-05-06 00:02 | 40.15290 | -77.72525 | 29851 ft | 370 kts | 259° |
| 2026-05-06 00:03 | 40.14241 | -77.79048 | 29846 ft | 369 kts | 259° |
| 2026-05-06 00:03 | 40.13546 | -77.85669 | 29844 ft | 368 kts | 270° |
| 2026-05-06 00:04 | 40.13642 | -77.92356 | 29847 ft | 368 kts | 270° |
| 2026-05-06 00:04 | 40.13718 | -77.99047 | 29862 ft | 368 kts | 269° |
| 2026-05-06 00:05 | 40.13807 | -78.09036 | 29873 ft | 368 kts | 269° |
| 2026-05-06 00:06 | 40.13868 | -78.15736 | 29871 ft | 369 kts | 269° |
| 2026-05-06 00:06 | 40.13933 | -78.22432 | 29877 ft | 369 kts | 269° |
| 2026-05-06 00:07 | 40.13989 | -78.29130 | 29883 ft | 369 kts | 269° |
| 2026-05-06 00:07 | 40.14040 | -78.35783 | 29877 ft | 368 kts | 269° |
| 2026-05-06 00:08 | 40.14088 | -78.42472 | 29881 ft | 368 kts | 269° |
| 2026-05-06 00:08 | 40.14131 | -78.49162 | 29879 ft | 368 kts | 269° |
| 2026-05-06 00:09 | 40.14173 | -78.55847 | 29879 ft | 368 kts | 269° |
| 2026-05-06 00:09 | 40.14210 | -78.62492 | 29878 ft | 368 kts | 269° |
| 2026-05-06 00:10 | 40.14247 | -78.69187 | 29881 ft | 368 kts | 269° |
| 2026-05-06 00:10 | 40.14275 | -78.75872 | 29899 ft | 368 kts | 269° |
| 2026-05-06 00:11 | 40.14293 | -78.82559 | 29900 ft | 368 kts | 269° |
| 2026-05-06 00:11 | 40.14316 | -78.89240 | 29900 ft | 368 kts | 269° |
| 2026-05-06 00:12 | 40.14338 | -78.95875 | 29896 ft | 368 kts | 269° |
| 2026-05-06 00:12 | 40.14349 | -79.02551 | 29893 ft | 367 kts | 269° |
| 2026-05-06 00:13 | 40.14352 | -79.09001 | 29893 ft | 367 kts | 269° |
| 2026-05-06 00:14 | 40.14354 | -79.13368 | 29893 ft | 367 kts | 269° |
| 2026-05-06 00:15 | 40.14408 | -79.20043 | 29892 ft | 368 kts | 271° |
| 2026-05-06 00:15 | 40.14596 | -79.26674 | 29892 ft | 368 kts | 271° |
| 2026-05-06 00:16 | 40.14793 | -79.33348 | 29893 ft | 368 kts | 271° |
| 2026-05-06 00:16 | 40.14952 | -79.40025 | 29893 ft | 367 kts | 271° |
| 2026-05-06 00:17 | 40.15096 | -79.46705 | 29908 ft | 367 kts | 271° |
| 2026-05-06 00:17 | 40.15244 | -79.53379 | 29900 ft | 367 kts | 271° |
| 2026-05-06 00:18 | 40.15383 | -79.60000 | 29893 ft | 367 kts | 271° |
| 2026-05-06 00:18 | 40.15517 | -79.66662 | 29887 ft | 367 kts | 271° |
| 2026-05-06 00:19 | 40.15616 | -79.71520 | 29872 ft | 367 kts | 271° |
| 2026-05-06 00:19 | 40.15622 | -79.71829 | 29871 ft | 367 kts | 271° |
| 2026-05-06 00:20 | 40.15750 | -79.78494 | 29868 ft | 367 kts | 271° |
| 2026-05-06 00:20 | 40.15873 | -79.85159 | 29869 ft | 367 kts | 271° |
| 2026-05-06 00:21 | 40.15993 | -79.91827 | 29867 ft | 367 kts | 271° |
| 2026-05-06 00:21 | 40.16118 | -79.98496 | 29865 ft | 367 kts | 271° |
| 2026-05-06 00:22 | 40.16227 | -80.05121 | 29892 ft | 367 kts | 271° |
| 2026-05-06 00:22 | 40.16331 | -80.11795 | 29898 ft | 367 kts | 271° |
| 2026-05-06 00:23 | 40.16439 | -80.18464 | 29920 ft | 367 kts | 271° |
| 2026-05-06 00:23 | 40.16542 | -80.25134 | 29918 ft | 367 kts | 271° |
| 2026-05-06 00:24 | 40.16642 | -80.31753 | 29915 ft | 367 kts | 271° |
| 2026-05-06 00:24 | 40.16740 | -80.38416 | 29911 ft | 366 kts | 271° |
| 2026-05-06 00:25 | 40.16835 | -80.45073 | 29901 ft | 366 kts | 271° |
| 2026-05-06 00:25 | 40.16925 | -80.51723 | 29893 ft | 366 kts | 271° |
| 2026-05-06 00:26 | 40.17006 | -80.58334 | 29898 ft | 365 kts | 271° |
| 2026-05-06 00:26 | 40.17083 | -80.64959 | 29883 ft | 364 kts | 271° |
| 2026-05-06 00:27 | 40.17157 | -80.71577 | 29879 ft | 364 kts | 271° |
| 2026-05-06 00:27 | 40.17231 | -80.78181 | 29876 ft | 363 kts | 271° |
| 2026-05-06 00:28 | 40.17298 | -80.84740 | 29870 ft | 363 kts | 271° |
| 2026-05-06 00:28 | 40.17359 | -80.91332 | 29875 ft | 363 kts | 271° |
| 2026-05-06 00:29 | 40.17417 | -80.97918 | 29868 ft | 362 kts | 270° |
| 2026-05-06 00:29 | 40.17395 | -81.04450 | 29865 ft | 361 kts | 269° |
| 2026-05-06 00:30 | 40.17310 | -81.11012 | 29858 ft | 361 kts | 269° |
| 2026-05-06 00:30 | 40.17222 | -81.17573 | 29854 ft | 361 kts | 269° |
| 2026-05-06 00:31 | 40.17148 | -81.24123 | 29852 ft | 360 kts | 269° |
| 2026-05-06 00:31 | 40.17071 | -81.30673 | 29869 ft | 360 kts | 270° |
| 2026-05-06 00:32 | 40.16992 | -81.37165 | 29868 ft | 359 kts | 270° |
| 2026-05-06 00:32 | 40.16916 | -81.43684 | 29864 ft | 358 kts | 270° |
| 2026-05-06 00:33 | 40.16836 | -81.50182 | 29860 ft | 357 kts | 270° |
| 2026-05-06 00:33 | 40.16747 | -81.56677 | 29806 ft | 357 kts | 270° |
| 2026-05-06 00:34 | 40.16708 | -81.63125 | 29811 ft | 356 kts | 275° |
| 2026-05-06 00:34 | 40.17097 | -81.69577 | 29830 ft | 356 kts | 275° |
| 2026-05-06 00:35 | 40.17483 | -81.76030 | 29841 ft | 355 kts | 274° |
| 2026-05-06 00:35 | 40.17863 | -81.82463 | 29842 ft | 354 kts | 274° |
| 2026-05-06 00:36 | 40.18242 | -81.88842 | 29839 ft | 354 kts | 274° |
| 2026-05-06 00:36 | 40.18616 | -81.95271 | 29837 ft | 354 kts | 274° |
| 2026-05-06 00:37 | 40.18985 | -82.01695 | 29837 ft | 354 kts | 274° |
| 2026-05-06 00:37 | 40.19352 | -82.08120 | 29836 ft | 354 kts | 274° |
| 2026-05-06 00:38 | 40.19715 | -82.14551 | 29837 ft | 354 kts | 274° |
| 2026-05-06 00:38 | 40.20068 | -82.20978 | 29837 ft | 354 kts | 274° |
| 2026-05-06 00:39 | 40.20418 | -82.27358 | 29834 ft | 354 kts | 274° |
| 2026-05-06 00:39 | 40.20772 | -82.33793 | 29834 ft | 354 kts | 274° |
| 2026-05-06 00:40 | 40.21123 | -82.40222 | 29849 ft | 354 kts | 274° |
| 2026-05-06 00:40 | 40.21468 | -82.46648 | 29859 ft | 354 kts | 274° |
| 2026-05-06 00:41 | 40.21803 | -82.53059 | 29857 ft | 353 kts | 274° |
| 2026-05-06 00:41 | 40.22137 | -82.59459 | 29854 ft | 352 kts | 274° |
| 2026-05-06 00:42 | 40.22465 | -82.65806 | 29853 ft | 352 kts | 274° |
| 2026-05-06 00:42 | 40.22800 | -82.72200 | 29858 ft | 352 kts | 274° |
| 2026-05-06 00:43 | 40.23131 | -82.78590 | 29871 ft | 352 kts | 273° |
| 2026-05-06 00:43 | 40.23448 | -82.84979 | 29864 ft | 352 kts | 273° |
| 2026-05-06 00:44 | 40.23760 | -82.91372 | 29861 ft | 352 kts | 273° |
| 2026-05-06 00:44 | 40.24069 | -82.97719 | 29859 ft | 352 kts | 273° |
| 2026-05-06 00:45 | 40.24380 | -83.04108 | 29702 ft | 352 kts | 273° |
| 2026-05-06 00:45 | 40.24537 | -83.07306 | 29532 ft | 353 kts | 273° |
| 2026-05-06 00:45 | 40.24696 | -83.10519 | 29364 ft | 353 kts | 273° |
| 2026-05-06 00:45 | 40.24849 | -83.13722 | 29199 ft | 353 kts | 273° |
| 2026-05-06 00:46 | 40.24997 | -83.16875 | 29037 ft | 353 kts | 272° |
| 2026-05-06 00:46 | 40.25146 | -83.20088 | 28874 ft | 354 kts | 272° |
| 2026-05-06 00:46 | 40.25299 | -83.23310 | 28713 ft | 354 kts | 272° |
| 2026-05-06 00:46 | 40.25453 | -83.26524 | 28549 ft | 353 kts | 272° |
| 2026-05-06 00:47 | 40.25602 | -83.29730 | 28391 ft | 353 kts | 272° |
| 2026-05-06 00:47 | 40.25746 | -83.32933 | 28230 ft | 352 kts | 272° |
| 2026-05-06 00:47 | 40.25888 | -83.36130 | 28071 ft | 351 kts | 272° |
| 2026-05-06 00:47 | 40.26027 | -83.39311 | 27912 ft | 350 kts | 272° |
| 2026-05-06 00:48 | 40.26168 | -83.42492 | 27753 ft | 350 kts | 272° |
| 2026-05-06 00:48 | 40.26315 | -83.45670 | 27607 ft | 349 kts | 272° |
| 2026-05-06 00:48 | 40.26460 | -83.48799 | 27457 ft | 348 kts | 272° |
| 2026-05-06 00:48 | 40.26603 | -83.51959 | 27304 ft | 348 kts | 272° |
| 2026-05-06 00:49 | 40.26741 | -83.55114 | 27146 ft | 347 kts | 272° |
| 2026-05-06 00:49 | 40.26872 | -83.58259 | 26995 ft | 346 kts | 272° |
| 2026-05-06 00:49 | 40.27006 | -83.61406 | 26846 ft | 345 kts | 272° |
| 2026-05-06 00:49 | 40.27140 | -83.64541 | 26695 ft | 345 kts | 272° |
| 2026-05-06 00:50 | 40.27273 | -83.67672 | 26546 ft | 344 kts | 272° |
| 2026-05-06 00:50 | 40.27406 | -83.70793 | 26396 ft | 344 kts | 272° |
| 2026-05-06 00:50 | 40.27537 | -83.73917 | 26244 ft | 343 kts | 272° |
| 2026-05-06 00:50 | 40.27672 | -83.77029 | 26100 ft | 342 kts | 272° |
| 2026-05-06 00:51 | 40.27803 | -83.80099 | 25955 ft | 342 kts | 272° |
| 2026-05-06 00:51 | 40.27933 | -83.83205 | 25805 ft | 341 kts | 271° |
| 2026-05-06 00:51 | 40.28058 | -83.86303 | 25661 ft | 340 kts | 271° |
| 2026-05-06 00:51 | 40.28183 | -83.89397 | 25515 ft | 340 kts | 271° |
| 2026-05-06 00:52 | 40.28307 | -83.92482 | 25380 ft | 339 kts | 271° |
| 2026-05-06 00:52 | 40.28426 | -83.95554 | 25236 ft | 337 kts | 271° |
| 2026-05-06 00:52 | 40.28548 | -83.98618 | 25093 ft | 337 kts | 271° |
| 2026-05-06 00:52 | 40.28673 | -84.01674 | 24950 ft | 336 kts | 271° |
| 2026-05-06 00:53 | 40.28764 | -84.04731 | 24807 ft | 335 kts | 268° |
| 2026-05-06 00:53 | 40.28663 | -84.07777 | 24676 ft | 335 kts | 266° |
| 2026-05-06 00:53 | 40.28559 | -84.10816 | 24531 ft | 334 kts | 266° |
| 2026-05-06 00:53 | 40.28461 | -84.13815 | 24399 ft | 334 kts | 266° |
| 2026-05-06 00:54 | 40.28364 | -84.16856 | 24251 ft | 334 kts | 266° |
| 2026-05-06 00:54 | 40.28267 | -84.19890 | 24119 ft | 333 kts | 266° |
| 2026-05-06 00:54 | 40.28171 | -84.22917 | 23986 ft | 333 kts | 266° |
| 2026-05-06 00:54 | 40.28070 | -84.25942 | 23871 ft | 332 kts | 266° |
| 2026-05-06 00:55 | 40.27965 | -84.28954 | 23897 ft | 332 kts | 266° |
| 2026-05-06 00:55 | 40.27857 | -84.31983 | 23891 ft | 333 kts | 266° |
| 2026-05-06 00:55 | 40.27748 | -84.35013 | 23889 ft | 333 kts | 266° |
| 2026-05-06 00:55 | 40.27645 | -84.38007 | 23881 ft | 334 kts | 266° |
| 2026-05-06 00:56 | 40.27536 | -84.41040 | 23880 ft | 334 kts | 266° |
| 2026-05-06 00:56 | 40.27425 | -84.44076 | 23878 ft | 334 kts | 266° |
| 2026-05-06 00:56 | 40.27315 | -84.47112 | 23878 ft | 334 kts | 266° |
| 2026-05-06 00:56 | 40.27203 | -84.50148 | 23878 ft | 334 kts | 266° |
| 2026-05-06 00:57 | 40.27093 | -84.53184 | 23878 ft | 334 kts | 266° |
| 2026-05-06 00:57 | 40.26987 | -84.56222 | 23878 ft | 334 kts | 266° |
| 2026-05-06 00:57 | 40.26879 | -84.59256 | 23878 ft | 334 kts | 266° |
| 2026-05-06 00:57 | 40.26767 | -84.62289 | 23879 ft | 334 kts | 266° |
| 2026-05-06 00:58 | 40.26648 | -84.65326 | 23880 ft | 334 kts | 266° |
| 2026-05-06 00:58 | 40.26528 | -84.68321 | 23889 ft | 334 kts | 265° |
| 2026-05-06 00:58 | 40.26410 | -84.71358 | 23882 ft | 334 kts | 265° |
| 2026-05-06 00:58 | 40.26299 | -84.74398 | 23883 ft | 334 kts | 266° |
| 2026-05-06 00:59 | 40.26190 | -84.77441 | 23884 ft | 335 kts | 266° |
| 2026-05-06 00:59 | 40.26081 | -84.80483 | 23885 ft | 335 kts | 266° |
| 2026-05-06 00:59 | 40.25972 | -84.83524 | 23901 ft | 335 kts | 266° |
| 2026-05-06 00:59 | 40.25858 | -84.86566 | 23901 ft | 334 kts | 265° |
| 2026-05-06 01:00 | 40.25743 | -84.89600 | 23769 ft | 332 kts | 265° |
| 2026-05-06 01:00 | 40.25630 | -84.92569 | 23328 ft | 330 kts | 265° |
| 2026-05-06 01:00 | 40.25513 | -84.95560 | 22945 ft | 327 kts | 265° |
| 2026-05-06 01:00 | 40.25396 | -84.98539 | 22891 ft | 328 kts | 265° |
| 2026-05-06 01:01 | 40.25275 | -85.01526 | 22903 ft | 329 kts | 265° |
| 2026-05-06 01:01 | 40.25154 | -85.04522 | 22891 ft | 330 kts | 265° |
| 2026-05-06 01:01 | 40.25035 | -85.07523 | 22892 ft | 330 kts | 265° |
| 2026-05-06 01:01 | 40.24917 | -85.10524 | 22891 ft | 330 kts | 265° |
| 2026-05-06 01:02 | 40.24797 | -85.13520 | 22752 ft | 328 kts | 265° |
| 2026-05-06 01:02 | 40.24679 | -85.16486 | 22300 ft | 325 kts | 265° |
| 2026-05-06 01:02 | 40.24560 | -85.19431 | 21858 ft | 322 kts | 265° |
| 2026-05-06 01:02 | 40.24441 | -85.22302 | 21430 ft | 319 kts | 265° |
| 2026-05-06 01:03 | 40.24324 | -85.25192 | 21000 ft | 316 kts | 265° |
| 2026-05-06 01:03 | 40.24207 | -85.28050 | 20581 ft | 313 kts | 265° |
| 2026-05-06 01:03 | 40.24088 | -85.30884 | 20165 ft | 310 kts | 265° |
| 2026-05-06 01:03 | 40.23965 | -85.33687 | 19728 ft | 308 kts | 265° |
| 2026-05-06 01:04 | 40.23843 | -85.36470 | 19314 ft | 305 kts | 265° |
| 2026-05-06 01:04 | 40.23505 | -85.39187 | 18913 ft | 302 kts | 255° |
| 2026-05-06 01:04 | 40.22722 | -85.41723 | 18514 ft | 301 kts | 244° |
| 2026-05-06 01:04 | 40.21695 | -85.44101 | 18088 ft | 300 kts | 244° |
| 2026-05-06 01:05 | 40.20686 | -85.46439 | 17619 ft | 298 kts | 244° |
| 2026-05-06 01:05 | 40.19673 | -85.48794 | 17173 ft | 296 kts | 243° |
| 2026-05-06 01:05 | 40.18668 | -85.51129 | 16745 ft | 294 kts | 243° |
| 2026-05-06 01:05 | 40.17671 | -85.53445 | 16327 ft | 291 kts | 243° |
| 2026-05-06 01:06 | 40.16681 | -85.55741 | 15925 ft | 288 kts | 243° |
| 2026-05-06 01:06 | 40.15698 | -85.58016 | 15883 ft | 287 kts | 243° |
| 2026-05-06 01:06 | 40.14714 | -85.60293 | 15887 ft | 288 kts | 243° |
| 2026-05-06 01:06 | 40.13735 | -85.62558 | 15634 ft | 285 kts | 243° |
| 2026-05-06 01:07 | 40.12767 | -85.64811 | 15212 ft | 283 kts | 243° |
| 2026-05-06 01:07 | 40.11813 | -85.67048 | 14810 ft | 281 kts | 243° |
| 2026-05-06 01:07 | 40.10871 | -85.69263 | 14422 ft | 278 kts | 243° |
| 2026-05-06 01:07 | 40.09932 | -85.71464 | 14042 ft | 276 kts | 242° |
| 2026-05-06 01:08 | 40.09013 | -85.73614 | 13674 ft | 274 kts | 242° |
| 2026-05-06 01:08 | 40.08087 | -85.75774 | 13235 ft | 272 kts | 242° |
| 2026-05-06 01:08 | 40.07164 | -85.77928 | 12769 ft | 272 kts | 242° |
| 2026-05-06 01:08 | 40.06199 | -85.80056 | 12294 ft | 273 kts | 236° |
| 2026-05-06 01:09 | 40.04924 | -85.81900 | 11820 ft | 277 kts | 224° |
| 2026-05-06 01:09 | 40.03413 | -85.83478 | 11350 ft | 278 kts | 221° |
| 2026-05-06 01:09 | 40.01899 | -85.85044 | 11055 ft | 277 kts | 221° |
| 2026-05-06 01:09 | 40.00376 | -85.86620 | 11022 ft | 280 kts | 221° |
| 2026-05-06 01:10 | 39.98864 | -85.88183 | 11023 ft | 269 kts | 221° |
| 2026-05-06 01:10 | 39.97431 | -85.89662 | 11025 ft | 262 kts | 221° |
| 2026-05-06 01:10 | 39.96007 | -85.91141 | 11022 ft | 261 kts | 221° |
| 2026-05-06 01:10 | 39.94608 | -85.92592 | 11015 ft | 261 kts | 222° |
| 2026-05-06 01:11 | 39.93153 | -85.94104 | 11020 ft | 266 kts | 222° |
| 2026-05-06 01:11 | 39.91728 | -85.95578 | 11024 ft | 260 kts | 222° |
| 2026-05-06 01:11 | 39.90318 | -85.97038 | 11025 ft | 259 kts | 222° |
| 2026-05-06 01:11 | 39.88899 | -85.98487 | 11026 ft | 259 kts | 221° |
| 2026-05-06 01:12 | 39.87470 | -85.99911 | 11024 ft | 259 kts | 221° |
| 2026-05-06 01:12 | 39.86040 | -86.01327 | 11025 ft | 259 kts | 221° |
| 2026-05-06 01:12 | 39.84613 | -86.02745 | 10905 ft | 257 kts | 221° |
| 2026-05-06 01:12 | 39.83205 | -86.04143 | 10659 ft | 254 kts | 221° |
| 2026-05-06 01:13 | 39.81783 | -86.05555 | 10196 ft | 259 kts | 220° |
| 2026-05-06 01:13 | 39.80356 | -86.06970 | 9736 ft | 263 kts | 220° |
| 2026-05-06 01:13 | 39.78899 | -86.08416 | 9246 ft | 266 kts | 220° |
| 2026-05-06 01:13 | 39.77422 | -86.09883 | 8748 ft | 269 kts | 220° |
| 2026-05-06 01:14 | 39.74423 | -86.12857 | 7783 ft | 273 kts | 219° |
| 2026-05-06 01:14 | 39.72906 | -86.14351 | 7301 ft | 275 kts | 219° |
| 2026-05-06 01:14 | 39.71371 | -86.15853 | 6835 ft | 277 kts | 218° |
| 2026-05-06 01:15 | 39.69827 | -86.17358 | 6384 ft | 278 kts | 218° |
| 2026-05-06 01:15 | 39.68279 | -86.18865 | 6044 ft | 275 kts | 218° |
| 2026-05-06 01:15 | 39.66799 | -86.20341 | 6008 ft | 261 kts | 223° |
| 2026-05-06 01:15 | 39.65526 | -86.21920 | 6014 ft | 246 kts | 225° |
| 2026-05-06 01:16 | 39.64360 | -86.23413 | 6015 ft | 232 kts | 226° |
| 2026-05-06 01:16 | 39.63253 | -86.24836 | 6014 ft | 217 kts | 226° |
| 2026-05-06 01:16 | 39.62190 | -86.26200 | 6016 ft | 214 kts | 226° |
| 2026-05-06 01:16 | 39.61135 | -86.27556 | 6018 ft | 214 kts | 226° |
| 2026-05-06 01:17 | 39.60077 | -86.28913 | 6019 ft | 214 kts | 226° |
| 2026-05-06 01:17 | 39.59023 | -86.30265 | 6019 ft | 213 kts | 226° |
| 2026-05-06 01:17 | 39.57976 | -86.31606 | 5870 ft | 211 kts | 226° |
| 2026-05-06 01:17 | 39.56935 | -86.32953 | 5540 ft | 212 kts | 226° |
| 2026-05-06 01:18 | 39.55895 | -86.34306 | 5239 ft | 212 kts | 227° |
| 2026-05-06 01:18 | 39.54855 | -86.35657 | 4940 ft | 212 kts | 227° |
| 2026-05-06 01:18 | 39.53825 | -86.36997 | 4644 ft | 213 kts | 227° |
| 2026-05-06 01:18 | 39.52792 | -86.38364 | 4303 ft | 213 kts | 232° |
| 2026-05-06 01:19 | 39.52192 | -86.40069 | 3947 ft | 210 kts | 266° |
| 2026-05-06 01:19 | 39.52488 | -86.41869 | 3674 ft | 205 kts | 304° |
| 2026-05-06 01:19 | 39.53366 | -86.43252 | 3550 ft | 195 kts | 314° |
| 2026-05-06 01:19 | 39.54318 | -86.44441 | 3398 ft | 186 kts | 326° |
| 2026-05-06 01:20 | 39.55462 | -86.45138 | 3190 ft | 180 kts | 354° |
| 2026-05-06 01:20 | 39.56667 | -86.44965 | 3065 ft | 170 kts | 12° |
| 2026-05-06 01:20 | 39.57745 | -86.44567 | 3015 ft | 151 kts | 14° |
| 2026-05-06 01:20 | 39.58704 | -86.44181 | 3037 ft | 138 kts | 15° |
| 2026-05-06 01:21 | 39.59579 | -86.43717 | 3003 ft | 139 kts | 36° |
| 2026-05-06 01:21 | 39.60211 | -86.42777 | 3014 ft | 136 kts | 38° |
| 2026-05-06 01:21 | 39.60912 | -86.41961 | 3022 ft | 135 kts | 38° |
| 2026-05-06 01:21 | 39.61592 | -86.41132 | 3024 ft | 134 kts | 39° |
| 2026-05-06 01:22 | 39.62265 | -86.40294 | 3017 ft | 134 kts | 39° |
| 2026-05-06 01:22 | 39.62937 | -86.39449 | 2925 ft | 135 kts | 39° |
| 2026-05-06 01:22 | 39.63601 | -86.38609 | 2664 ft | 133 kts | 40° |
| 2026-05-06 01:22 | 39.64260 | -86.37774 | 2456 ft | 132 kts | 40° |
| 2026-05-06 01:23 | 39.64915 | -86.36944 | 2259 ft | 132 kts | 40° |
| 2026-05-06 01:23 | 39.65562 | -86.36122 | 2077 ft | 132 kts | 40° |
| 2026-05-06 01:23 | 39.66216 | -86.35291 | 1893 ft | 133 kts | 40° |
| 2026-05-06 01:23 | 39.66864 | -86.34446 | 1745 ft | 132 kts | 41° |
| 2026-05-06 01:24 | 39.67519 | -86.33612 | 1596 ft | 133 kts | 41° |
| 2026-05-06 01:24 | 39.68180 | -86.32774 | 1348 ft | 134 kts | 40° |
| 2026-05-06 01:24 | 39.68852 | -86.31946 | 1164 ft | 134 kts | 41° |
| 2026-05-06 01:24 | 39.69508 | -86.31094 | 1002 ft | 134 kts | 43° |
| 2026-05-06 01:25 | 39.70169 | -86.30255 | 817 ft | 133 kts | 44° |
| 2026-05-06 01:25 | 39.70760 | -86.29503 | 790 ft | 94 kts | 44° |
| 2026-05-06 01:25 | 39.71039 | -86.29150 | 787 ft | 39 kts | 44° |
| 2026-05-06 01:25 | 39.71223 | -86.28914 | 790 ft | 36 kts | 45° |
| 2026-05-06 01:26 | 39.71376 | -86.28791 | 790 ft | 20 kts | 4° |
| 2026-05-06 01:26 | 39.71464 | -86.28813 | 789 ft | 8 kts | 349° |
| 2026-05-06 01:26 | 39.71521 | -86.28822 | 788 ft | 1 kts | 4° |
| 2026-05-06 01:26 | 39.71544 | -86.28811 | 788 ft | 6 kts | 29° |
| 2026-05-06 01:27 | 39.71579 | -86.28807 | 787 ft | 9 kts | 342° |
| 2026-05-06 01:27 | 39.71634 | -86.28879 | 785 ft | 13 kts | 311° |
| 2026-05-06 01:27 | 39.71616 | -86.28988 | 786 ft | 14 kts | 234° |
| 2026-05-06 01:27 | 39.71567 | -86.29062 | 787 ft | 8 kts | 230° |
| 2026-05-06 01:28 | 39.71533 | -86.29115 | 787 ft | 5 kts | 230° |
| 2026-05-06 01:28 | 39.71519 | -86.29136 | 787 ft | 0 kts | 230° |
| 2026-05-06 01:30 | 39.71518 | -86.29138 | 787 ft | 1 kts | 231° |
| 2026-05-06 01:30 | 39.71519 | -86.29156 | 787 ft | 5 kts | 273° |
| 2026-05-06 01:30 | 39.71512 | -86.29251 | 787 ft | 16 kts | 229° |
| 2026-05-06 01:31 | 39.71446 | -86.29334 | 787 ft | 8 kts | 225° |
| 2026-05-06 01:31 | 39.71419 | -86.29407 | 786 ft | 11 kts | 276° |
| 2026-05-06 01:31 | 39.71424 | -86.29431 | 786 ft | 2 kts | 284° |
| 2026-05-06 01:31 | 39.71428 | -86.29455 | 786 ft | 4 kts | 289° |
| 2026-05-06 01:32 | 39.71451 | -86.29487 | 787 ft | 6 kts | 330° |
| 2026-05-06 01:32 | 39.71457 | -86.29492 | 787 ft | 0 kts | 327° |